Lincoln City, OR

3:23 PM PST on December 21, 2014 (GMT -0800)
Coronado Shores Beach Club | Change Station
CLOSE
Current Station
Personal Weather Station
Location: Gleneden Beach, OR
Elevation: 72 ft
Nearby Weather Stations
Active Advisory: Flood Warning, Areal Flood Watch Active Notice: Record Report

Elev 72 ft 44.87 °N, 124.04 °W | Updated 9 minutes ago

Overcast
Overcast
54.8 °F
Feels Like 54.8 °F
N
0.0
Wind Variable Wind from West
Gusts 9.0 mph

Today
High -- | Low -- °F
--% Chance of Precip.
Yesterday
High -- | Low -- °F
Precip. -- in
7:50 AM 4:37 PM
Waning Crescent, 0% visible
Pressure 30.19 in
Visibility 2.5 miles
Clouds Mostly Cloudy 1500 ft
Overcast 2100 ft
Dew Point 54 °F
Humidity 98%
Rainfall 0.27 in
Snow Depth Not available.
UV 0.0 out of 12
Pollen .50 out of 12
Air Quality Not available.
Flu Activity Not available.
METAR KONP 212315Z AUTO 21011KT 2 1/2SM DZ BKN015 OVC021 12/11 A3019 RMK AO2

More Conditions Fewer Conditions

Pressure 30.19 in
Visibility 2.5 miles
Clouds Mostly Cloudy 1500 ft
Overcast 2100 ft
Dew Point 54 °F
Humidity 98%
Rainfall 0.27 in
Snow Depth Not available.
UV 0.0 out of 12
Pollen .50 out of 12
Air Quality Not available.
Flu Activity Not available.
METAR KONP 212315Z AUTO 21011KT 2 1/2SM DZ BKN015 OVC021 12/11 A3019 RMK AO2

More Conditions Fewer Conditions

10-Day Weather Forecast

Almanac

Astronomy

Dec. 21, 2014 Rise Set
Actual Time
Civil Twilight
Nautical Twilight
Astronomical Twilight
Moon
Length of Visible Light
Length of Day
Tomorrow will be .
, % of the Moon is Illuminated

Today's Extremes

State Highs State Lows

Community

WunderPhotos

Upload Photos

1,779,502 photos uploaded!

WunderBlogs® & News

Nearby

Air Quality

  Air Quality AQ Index Pollutant
Not available.

Snow Depth

Station Depth Elevation

Earthquake Activity

City Distance Mag. Time & Date
Minimum magnitude displayed is 2.5.

Coastal Water Temperatures

Place Temperature

Nearby Weather Stations